ROA230 SCIE-SCEL
Flight info
| Callsign | ROA230 |
|---|---|
| Flight time | 0h 46m |
| Altitude | 28000 |
| Route | LODOS4N LODOS UQ808 EROLO EROLO8A |
| Aircraft | A321/M-SDE3FGHIRWY/LB1 |
Departure
| Time | 2026-04-22 13:26 |
|---|---|
| Airport | Carriel Sur International Airport (SCIE) |
Arrival
| Time | 2026-04-22 14:12 |
|---|---|
| Airport | Comodoro Arturo Merino Benítez International Airport (SCEL) |
| Time | Latitude | Longitude | Altitude | Speed | Heading |
|---|---|---|---|---|---|
| 2026-04-22 13:02 | -36.77603 | -73.06033 | 60 ft | 0 kts | 170° |
| 2026-04-22 13:16 | -36.77585 | -73.06038 | 56 ft | 3 kts | 168° |
| 2026-04-22 13:17 | -36.77564 | -73.06042 | 51 ft | 3 kts | 181° |
| 2026-04-22 13:17 | -36.77545 | -73.06034 | 54 ft | 3 kts | 238° |
| 2026-04-22 13:17 | -36.77538 | -73.06007 | 53 ft | 3 kts | 269° |
| 2026-04-22 13:17 | -36.77538 | -73.05999 | 55 ft | 0 kts | 271° |
| 2026-04-22 13:20 | -36.77538 | -73.06011 | 53 ft | 4 kts | 271° |
| 2026-04-22 13:20 | -36.77531 | -73.06076 | 60 ft | 11 kts | 282° |
| 2026-04-22 13:20 | -36.77507 | -73.06157 | 53 ft | 9 kts | 292° |
| 2026-04-22 13:20 | -36.77520 | -73.06218 | 52 ft | 7 kts | 221° |
| 2026-04-22 13:21 | -36.77574 | -73.06256 | 61 ft | 12 kts | 206° |
| 2026-04-22 13:21 | -36.77651 | -73.06300 | 57 ft | 12 kts | 205° |
| 2026-04-22 13:21 | -36.77721 | -73.06341 | 59 ft | 11 kts | 205° |
| 2026-04-22 13:21 | -36.77784 | -73.06378 | 59 ft | 10 kts | 205° |
| 2026-04-22 13:22 | -36.77841 | -73.06412 | 58 ft | 9 kts | 205° |
| 2026-04-22 13:22 | -36.77922 | -73.06460 | 59 ft | 17 kts | 205° |
| 2026-04-22 13:22 | -36.78033 | -73.06526 | 56 ft | 17 kts | 205° |
| 2026-04-22 13:22 | -36.78140 | -73.06587 | 54 ft | 16 kts | 205° |
| 2026-04-22 13:23 | -36.78229 | -73.06643 | 61 ft | 10 kts | 219° |
| 2026-04-22 13:23 | -36.78245 | -73.06708 | 54 ft | 7 kts | 277° |
| 2026-04-22 13:23 | -36.78233 | -73.06747 | 63 ft | 3 kts | 294° |
| 2026-04-22 13:23 | -36.78231 | -73.06752 | 54 ft | 1 kts | 294° |
| 2026-04-22 13:24 | -36.78223 | -73.06775 | 59 ft | 4 kts | 294° |
| 2026-04-22 13:24 | -36.78208 | -73.06817 | 66 ft | 6 kts | 294° |
| 2026-04-22 13:24 | -36.78185 | -73.06854 | 62 ft | 5 kts | 345° |
| 2026-04-22 13:24 | -36.78168 | -73.06848 | 65 ft | 0 kts | 23° |
| 2026-04-22 13:25 | -36.78167 | -73.06847 | 65 ft | 4 kts | 23° |
| 2026-04-22 13:25 | -36.77901 | -73.06693 | 64 ft | 80 kts | 25° |
| 2026-04-22 13:25 | -36.77205 | -73.06290 | 65 ft | 138 kts | 25° |
| 2026-04-22 13:25 | -36.76207 | -73.05711 | 250 ft | 166 kts | 25° |
| 2026-04-22 13:26 | -36.75163 | -73.05111 | 822 ft | 172 kts | 25° |
| 2026-04-22 13:26 | -36.74015 | -73.04439 | 1099 ft | 193 kts | 24° |
| 2026-04-22 13:26 | -36.72729 | -73.03690 | 1308 ft | 215 kts | 24° |
| 2026-04-22 13:26 | -36.71296 | -73.02855 | 1489 ft | 240 kts | 24° |
| 2026-04-22 13:27 | -36.69767 | -73.01825 | 1965 ft | 257 kts | 36° |
| 2026-04-22 13:27 | -36.68419 | -73.00323 | 2702 ft | 263 kts | 46° |
| 2026-04-22 13:27 | -36.67222 | -72.98618 | 3485 ft | 266 kts | 51° |
| 2026-04-22 13:27 | -36.66061 | -72.96805 | 4279 ft | 270 kts | 51° |
| 2026-04-22 13:28 | -36.64880 | -72.94965 | 5065 ft | 274 kts | 51° |
| 2026-04-22 13:28 | -36.63665 | -72.93123 | 5816 ft | 277 kts | 50° |
| 2026-04-22 13:28 | -36.62408 | -72.91274 | 6549 ft | 282 kts | 49° |
| 2026-04-22 13:28 | -36.61114 | -72.89414 | 7230 ft | 287 kts | 48° |
| 2026-04-22 13:29 | -36.59785 | -72.87538 | 7910 ft | 291 kts | 48° |
| 2026-04-22 13:29 | -36.58425 | -72.85639 | 8589 ft | 296 kts | 47° |
| 2026-04-22 13:29 | -36.57041 | -72.83716 | 9246 ft | 301 kts | 47° |
| 2026-04-22 13:29 | -36.55637 | -72.81762 | 9925 ft | 306 kts | 47° |
| 2026-04-22 13:30 | -36.54202 | -72.79760 | 10430 ft | 316 kts | 47° |
| 2026-04-22 13:30 | -36.52693 | -72.77658 | 10629 ft | 337 kts | 47° |
| 2026-04-22 13:30 | -36.51083 | -72.75422 | 10777 ft | 357 kts | 47° |
| 2026-04-22 13:30 | -36.49402 | -72.73096 | 11250 ft | 365 kts | 46° |
| 2026-04-22 13:31 | -36.47642 | -72.70802 | 11843 ft | 369 kts | 44° |
| 2026-04-22 13:31 | -36.45835 | -72.68572 | 12444 ft | 373 kts | 43° |
| 2026-04-22 13:31 | -36.43963 | -72.66323 | 13072 ft | 376 kts | 42° |
| 2026-04-22 13:31 | -36.42067 | -72.64067 | 13672 ft | 380 kts | 42° |
| 2026-04-22 13:32 | -36.40154 | -72.61781 | 14265 ft | 383 kts | 42° |
| 2026-04-22 13:32 | -36.38230 | -72.59467 | 14805 ft | 387 kts | 43° |
| 2026-04-22 13:32 | -36.36296 | -72.57123 | 15357 ft | 391 kts | 43° |
| 2026-04-22 13:32 | -36.34347 | -72.54749 | 15881 ft | 395 kts | 43° |
| 2026-04-22 13:33 | -36.32379 | -72.52351 | 16397 ft | 399 kts | 43° |
| 2026-04-22 13:33 | -36.30386 | -72.49923 | 16908 ft | 403 kts | 43° |
| 2026-04-22 13:33 | -36.28375 | -72.47478 | 17420 ft | 407 kts | 43° |
| 2026-04-22 13:33 | -36.26338 | -72.45008 | 17911 ft | 412 kts | 43° |
| 2026-04-22 13:34 | -36.24283 | -72.42514 | 18398 ft | 416 kts | 43° |
| 2026-04-22 13:34 | -36.22208 | -72.39997 | 18841 ft | 420 kts | 43° |
| 2026-04-22 13:34 | -36.20114 | -72.37458 | 19293 ft | 423 kts | 43° |
| 2026-04-22 13:34 | -36.18005 | -72.34907 | 19736 ft | 425 kts | 43° |
| 2026-04-22 13:35 | -36.15910 | -72.32375 | 20172 ft | 428 kts | 43° |
| 2026-04-22 13:35 | -36.13774 | -72.29796 | 20596 ft | 430 kts | 43° |
| 2026-04-22 13:35 | -36.11625 | -72.27204 | 21046 ft | 433 kts | 43° |
| 2026-04-22 13:35 | -36.09462 | -72.24597 | 21490 ft | 435 kts | 43° |
| 2026-04-22 13:36 | -36.07287 | -72.21978 | 21916 ft | 438 kts | 43° |
| 2026-04-22 13:36 | -36.05021 | -72.19456 | 22344 ft | 440 kts | 36° |
| 2026-04-22 13:36 | -36.02464 | -72.17372 | 22757 ft | 441 kts | 26° |
| 2026-04-22 13:36 | -35.99694 | -72.15733 | 23172 ft | 442 kts | 22° |
| 2026-04-22 13:37 | -35.96894 | -72.14154 | 23579 ft | 444 kts | 22° |
| 2026-04-22 13:37 | -35.94072 | -72.12558 | 23971 ft | 447 kts | 22° |
| 2026-04-22 13:37 | -35.91240 | -72.10955 | 24307 ft | 449 kts | 22° |
| 2026-04-22 13:37 | -35.88389 | -72.09342 | 24650 ft | 451 kts | 22° |
| 2026-04-22 13:38 | -35.85531 | -72.07724 | 24991 ft | 453 kts | 22° |
| 2026-04-22 13:38 | -35.79826 | -72.04498 | 25705 ft | 456 kts | 22° |
| 2026-04-22 13:38 | -35.76934 | -72.02868 | 26049 ft | 457 kts | 21° |
| 2026-04-22 13:39 | -35.74038 | -72.01238 | 26377 ft | 459 kts | 21° |
| 2026-04-22 13:39 | -35.71125 | -71.99597 | 26704 ft | 461 kts | 21° |
| 2026-04-22 13:39 | -35.68202 | -71.97949 | 27036 ft | 463 kts | 21° |
| 2026-04-22 13:39 | -35.65266 | -71.96297 | 27363 ft | 465 kts | 21° |
| 2026-04-22 13:40 | -35.62318 | -71.94646 | 27690 ft | 467 kts | 21° |
| 2026-04-22 13:40 | -35.59352 | -71.92989 | 28014 ft | 468 kts | 21° |
| 2026-04-22 13:40 | -35.56383 | -71.91329 | 28265 ft | 469 kts | 21° |
| 2026-04-22 13:40 | -35.53445 | -71.89682 | 28308 ft | 458 kts | 20° |
| 2026-04-22 13:41 | -35.47704 | -71.86462 | 28306 ft | 451 kts | 20° |
| 2026-04-22 13:41 | -35.41993 | -71.83270 | 28307 ft | 451 kts | 20° |
| 2026-04-22 13:42 | -35.36322 | -71.80108 | 28308 ft | 451 kts | 20° |
| 2026-04-22 13:42 | -35.30618 | -71.76931 | 28304 ft | 449 kts | 19° |
| 2026-04-22 13:43 | -35.24933 | -71.73775 | 28307 ft | 449 kts | 19° |
| 2026-04-22 13:43 | -35.19248 | -71.70623 | 28295 ft | 448 kts | 19° |
| 2026-04-22 13:44 | -35.13570 | -71.67469 | 28295 ft | 448 kts | 19° |
| 2026-04-22 13:44 | -35.07902 | -71.64336 | 28280 ft | 447 kts | 19° |
| 2026-04-22 13:45 | -35.02223 | -71.61206 | 28277 ft | 448 kts | 19° |
| 2026-04-22 13:45 | -34.96550 | -71.58065 | 28282 ft | 448 kts | 19° |
| 2026-04-22 13:46 | -34.90869 | -71.54932 | 28285 ft | 448 kts | 18° |
| 2026-04-22 13:46 | -34.85193 | -71.51816 | 28289 ft | 447 kts | 18° |
| 2026-04-22 13:47 | -34.79557 | -71.48724 | 28274 ft | 447 kts | 17° |
| 2026-04-22 13:47 | -34.73866 | -71.45603 | 28295 ft | 445 kts | 17° |
| 2026-04-22 13:48 | -34.68262 | -71.42536 | 28293 ft | 444 kts | 17° |
| 2026-04-22 13:48 | -34.62622 | -71.39493 | 28288 ft | 442 kts | 15° |
| 2026-04-22 13:49 | -34.56933 | -71.36679 | 28277 ft | 440 kts | 14° |
| 2026-04-22 13:49 | -34.51238 | -71.33958 | 28257 ft | 439 kts | 13° |
| 2026-04-22 13:50 | -34.45563 | -71.31192 | 28263 ft | 439 kts | 14° |
| 2026-04-22 13:50 | -34.39898 | -71.28405 | 28263 ft | 439 kts | 14° |
| 2026-04-22 13:51 | -34.37084 | -71.27021 | 28094 ft | 433 kts | 14° |
| 2026-04-22 13:51 | -34.34357 | -71.25679 | 27835 ft | 424 kts | 14° |
| 2026-04-22 13:51 | -34.31643 | -71.24346 | 27532 ft | 418 kts | 14° |
| 2026-04-22 13:51 | -34.28956 | -71.23029 | 27047 ft | 415 kts | 15° |
| 2026-04-22 13:52 | -34.26292 | -71.21724 | 26553 ft | 411 kts | 15° |
| 2026-04-22 13:52 | -34.23652 | -71.20428 | 26105 ft | 408 kts | 15° |
| 2026-04-22 13:52 | -34.21029 | -71.19144 | 25644 ft | 405 kts | 16° |
| 2026-04-22 13:52 | -34.18425 | -71.17875 | 25195 ft | 402 kts | 16° |
| 2026-04-22 13:53 | -34.15840 | -71.16620 | 24745 ft | 399 kts | 17° |
| 2026-04-22 13:53 | -34.13273 | -71.15372 | 24303 ft | 397 kts | 17° |
| 2026-04-22 13:53 | -34.10713 | -71.14129 | 23854 ft | 395 kts | 18° |
| 2026-04-22 13:53 | -34.08164 | -71.12890 | 23350 ft | 394 kts | 18° |
| 2026-04-22 13:54 | -34.05637 | -71.11665 | 22896 ft | 390 kts | 18° |
| 2026-04-22 13:54 | -34.03130 | -71.10447 | 22450 ft | 387 kts | 18° |
| 2026-04-22 13:54 | -34.00641 | -71.09238 | 21983 ft | 384 kts | 18° |
| 2026-04-22 13:54 | -33.98173 | -71.08039 | 21556 ft | 381 kts | 18° |
| 2026-04-22 13:55 | -33.95723 | -71.06850 | 21092 ft | 379 kts | 19° |
| 2026-04-22 13:55 | -33.93286 | -71.05667 | 20666 ft | 377 kts | 19° |
| 2026-04-22 13:55 | -33.90862 | -71.04490 | 20223 ft | 376 kts | 19° |
| 2026-04-22 13:55 | -33.88469 | -71.03327 | 19785 ft | 375 kts | 20° |
| 2026-04-22 13:56 | -33.86059 | -71.02159 | 19337 ft | 374 kts | 20° |
| 2026-04-22 13:56 | -33.83649 | -71.00994 | 18902 ft | 373 kts | 20° |
| 2026-04-22 13:56 | -33.81242 | -70.99832 | 18449 ft | 372 kts | 21° |
| 2026-04-22 13:56 | -33.78841 | -70.98672 | 17961 ft | 371 kts | 21° |
| 2026-04-22 13:57 | -33.76458 | -70.97520 | 17541 ft | 368 kts | 21° |
| 2026-04-22 13:57 | -33.74099 | -70.96382 | 17107 ft | 363 kts | 22° |
| 2026-04-22 13:57 | -33.71761 | -70.95254 | 16698 ft | 361 kts | 21° |
| 2026-04-22 13:57 | -33.69440 | -70.94133 | 16282 ft | 359 kts | 21° |
| 2026-04-22 13:58 | -33.67129 | -70.93015 | 15861 ft | 357 kts | 21° |
| 2026-04-22 13:58 | -33.64835 | -70.91908 | 15443 ft | 355 kts | 21° |
| 2026-04-22 13:58 | -33.62545 | -70.90806 | 15027 ft | 354 kts | 21° |
| 2026-04-22 13:58 | -33.60265 | -70.89710 | 14611 ft | 352 kts | 21° |
| 2026-04-22 13:59 | -33.57987 | -70.88617 | 14188 ft | 351 kts | 21° |
| 2026-04-22 13:59 | -33.55794 | -70.87355 | 13731 ft | 349 kts | 31° |
| 2026-04-22 13:59 | -33.53759 | -70.85855 | 13310 ft | 347 kts | 31° |
| 2026-04-22 13:59 | -33.51712 | -70.84348 | 12895 ft | 344 kts | 31° |
| 2026-04-22 14:00 | -33.49678 | -70.82855 | 12476 ft | 341 kts | 31° |
| 2026-04-22 14:00 | -33.47659 | -70.81373 | 12038 ft | 339 kts | 31° |
| 2026-04-22 14:00 | -33.45651 | -70.79899 | 11611 ft | 337 kts | 31° |
| 2026-04-22 14:00 | -33.43652 | -70.78430 | 10950 ft | 337 kts | 31° |
| 2026-04-22 14:01 | -33.41685 | -70.76980 | 10491 ft | 326 kts | 31° |
| 2026-04-22 14:01 | -33.39799 | -70.75591 | 10205 ft | 309 kts | 31° |
| 2026-04-22 14:01 | -33.38020 | -70.74285 | 9942 ft | 293 kts | 30° |
| 2026-04-22 14:01 | -33.36306 | -70.73032 | 9544 ft | 284 kts | 30° |
| 2026-04-22 14:02 | -33.34617 | -70.71799 | 9157 ft | 285 kts | 30° |
| 2026-04-22 14:02 | -33.32960 | -70.70589 | 8844 ft | 270 kts | 30° |
| 2026-04-22 14:02 | -33.31304 | -70.69673 | 8400 ft | 256 kts | 14° |
| 2026-04-22 14:02 | -33.29577 | -70.69321 | 8277 ft | 253 kts | 1° |
| 2026-04-22 14:03 | -33.27814 | -70.69444 | 8154 ft | 255 kts | 354° |
| 2026-04-22 14:03 | -33.26068 | -70.69660 | 7957 ft | 256 kts | 354° |
| 2026-04-22 14:03 | -33.24301 | -70.69873 | 7636 ft | 255 kts | 354° |
| 2026-04-22 14:03 | -33.22547 | -70.70080 | 7317 ft | 252 kts | 354° |
| 2026-04-22 14:04 | -33.20809 | -70.70285 | 6999 ft | 250 kts | 354° |
| 2026-04-22 14:04 | -33.19079 | -70.70489 | 6685 ft | 250 kts | 354° |
| 2026-04-22 14:04 | -33.17354 | -70.70713 | 6421 ft | 248 kts | 353° |
| 2026-04-22 14:04 | -33.15637 | -70.70964 | 6298 ft | 249 kts | 353° |
| 2026-04-22 14:05 | -33.14029 | -70.71537 | 6148 ft | 235 kts | 331° |
| 2026-04-22 14:05 | -33.12810 | -70.72783 | 5943 ft | 230 kts | 307° |
| 2026-04-22 14:05 | -33.12122 | -70.76366 | 5526 ft | 228 kts | 259° |
| 2026-04-22 14:06 | -33.12746 | -70.78091 | 5349 ft | 227 kts | 233° |
| 2026-04-22 14:06 | -33.13895 | -70.79362 | 5316 ft | 223 kts | 210° |
| 2026-04-22 14:06 | -33.15271 | -70.79997 | 5275 ft | 202 kts | 196° |
| 2026-04-22 14:06 | -33.16570 | -70.80449 | 5206 ft | 191 kts | 196° |
| 2026-04-22 14:07 | -33.17795 | -70.80880 | 5165 ft | 194 kts | 196° |
| 2026-04-22 14:07 | -33.19106 | -70.81240 | 5060 ft | 194 kts | 184° |
| 2026-04-22 14:07 | -33.20450 | -70.81254 | 4853 ft | 193 kts | 178° |
| 2026-04-22 14:07 | -33.21781 | -70.81194 | 4614 ft | 190 kts | 177° |
| 2026-04-22 14:08 | -33.23082 | -70.81127 | 4367 ft | 185 kts | 176° |
| 2026-04-22 14:08 | -33.24350 | -70.81059 | 4131 ft | 180 kts | 176° |
| 2026-04-22 14:08 | -33.25588 | -70.80993 | 3896 ft | 176 kts | 177° |
| 2026-04-22 14:08 | -33.26795 | -70.80929 | 3684 ft | 169 kts | 177° |
| 2026-04-22 14:09 | -33.27964 | -70.80866 | 3463 ft | 167 kts | 176° |
| 2026-04-22 14:09 | -33.29070 | -70.80807 | 3242 ft | 157 kts | 177° |
| 2026-04-22 14:09 | -33.30149 | -70.80749 | 3017 ft | 154 kts | 177° |
| 2026-04-22 14:09 | -33.31215 | -70.80692 | 2817 ft | 153 kts | 177° |
| 2026-04-22 14:10 | -33.32272 | -70.80636 | 2598 ft | 152 kts | 177° |
| 2026-04-22 14:10 | -33.33324 | -70.80579 | 2379 ft | 151 kts | 177° |
| 2026-04-22 14:10 | -33.34374 | -70.80523 | 2167 ft | 151 kts | 178° |
| 2026-04-22 14:10 | -33.35427 | -70.80467 | 1954 ft | 152 kts | 179° |
| 2026-04-22 14:11 | -33.36480 | -70.80408 | 1745 ft | 152 kts | 179° |
| 2026-04-22 14:11 | -33.37533 | -70.80354 | 1584 ft | 151 kts | 180° |
| 2026-04-22 14:11 | -33.38473 | -70.80307 | 1573 ft | 113 kts | 178° |
| 2026-04-22 14:11 | -33.39062 | -70.80272 | 1574 ft | 53 kts | 178° |
| 2026-04-22 14:12 | -33.39229 | -70.80261 | 1572 ft | 23 kts | 170° |
| 2026-04-22 14:12 | -33.39349 | -70.80185 | 1571 ft | 13 kts | 148° |
| 2026-04-22 14:12 | -33.39401 | -70.80146 | 1569 ft | 13 kts | 147° |
| 2026-04-22 14:12 | -33.39450 | -70.80108 | 1567 ft | 8 kts | 147° |
| 2026-04-22 14:13 | -33.39494 | -70.80073 | 1566 ft | 8 kts | 147° |
| 2026-04-22 14:13 | -33.39538 | -70.80043 | 1566 ft | 7 kts | 163° |
| 2026-04-22 14:13 | -33.39593 | -70.80039 | 1566 ft | 8 kts | 177° |
| 2026-04-22 14:13 | -33.39646 | -70.80037 | 1566 ft | 7 kts | 178° |
| 2026-04-22 14:14 | -33.39703 | -70.80035 | 1566 ft | 5 kts | 178° |
| 2026-04-22 14:14 | -33.39720 | -70.80034 | 1566 ft | 2 kts | 179° |
| 2026-04-22 14:14 | -33.39726 | -70.80034 | 1566 ft | 1 kts | 178° |
| 2026-04-22 14:14 | -33.39734 | -70.80034 | 1566 ft | 2 kts | 178° |
| 2026-04-22 14:15 | -33.39752 | -70.80033 | 1566 ft | 4 kts | 176° |
| 2026-04-22 14:15 | -33.39786 | -70.80030 | 1566 ft | 6 kts | 176° |
| 2026-04-22 14:15 | -33.39835 | -70.80011 | 1566 ft | 8 kts | 131° |
| 2026-04-22 14:15 | -33.39844 | -70.79934 | 1565 ft | 11 kts | 88° |
| 2026-04-22 14:16 | -33.39830 | -70.79846 | 1565 ft | 10 kts | 74° |
| 2026-04-22 14:16 | -33.39812 | -70.79783 | 1565 ft | 5 kts | 42° |
| 2026-04-22 14:16 | -33.39788 | -70.79780 | 1565 ft | 3 kts | 359° |
| 2026-04-22 14:16 | -33.39767 | -70.79781 | 1565 ft | 4 kts | 358° |
| 2026-04-22 14:17 | -33.39736 | -70.79782 | 1565 ft | 3 kts | 358° |
| 2026-04-22 14:17 | -33.39734 | -70.79783 | 1565 ft | 0 kts | 358° |